Time;durP1;ratioP1;P1;durP2;ratioP2;P2;SDS_P1;SDS_P2;PMS_P1;PMS_P2;Temp;Humidity;BMP_temperature;BMP_pressure;BME280_temperature;BME280_humidity;BME280_pressure;Samples;Min_cycle;Max_cycle;Signal;HPM_P1;HPM_P2
2022/07/08 00:00:38;;;;;;;1.38;0.70;;;21.30;94.50;;;;;;5006347;28;20370;-82
2022/07/08 00:03:04;;;;;;;1.30;0.60;;;21.20;94.40;;;;;;5024239;28;20075;-82
2022/07/08 00:05:30;;;;;;;2.25;0.60;;;21.30;94.50;;;;;;5024342;28;20025;-83
2022/07/08 00:07:56;;;;;;;1.33;0.68;;;21.20;94.50;;;;;;4995576;28;20397;-83
2022/07/08 00:10:22;;;;;;;2.63;0.80;;;21.20;94.50;;;;;;4995470;28;20030;-82
2022/07/08 00:12:47;;;;;;;2.28;0.90;;;21.20;94.30;;;;;;5000963;28;20018;-82
2022/07/08 00:15:13;;;;;;;2.55;0.80;;;21.10;94.40;;;;;;5006622;28;20056;-82
2022/07/08 00:17:39;;;;;;;3.47;1.08;;;21.20;94.40;;;;;;5013299;28;20035;-81
2022/07/08 00:20:06;;;;;;;3.53;1.00;;;21.20;94.40;;;;;;5013201;28;20030;-83
2022/07/08 00:22:33;;;;;;;3.40;1.00;;;21.20;94.30;;;;;;4994980;28;20033;-82
2022/07/08 00:24:59;;;;;;;3.53;1.10;;;21.10;94.20;;;;;;5002426;28;20037;-82
2022/07/08 00:27:24;;;;;;;2.17;0.88;;;21.10;94.10;;;;;;5010002;28;20485;-82
2022/07/08 00:29:50;;;;;;;2.35;1.02;;;21.20;94.40;;;;;;4999126;28;20030;-82
2022/07/08 00:32:16;;;;;;;2.92;0.90;;;21.20;94.10;;;;;;5000312;28;20532;-82
2022/07/08 00:34:41;;;;;;;3.75;1.33;;;21.10;94.00;;;;;;4999203;28;20077;-82
2022/07/08 00:37:07;;;;;;;4.43;0.90;;;21.10;93.90;;;;;;4999276;28;20026;-82
2022/07/08 00:39:33;;;;;;;4.88;1.20;;;21.10;93.90;;;;;;5016785;28;20440;-82
2022/07/08 00:41:59;;;;;;;2.75;1.02;;;21.10;93.80;;;;;;5003315;28;20041;-83
2022/07/08 00:44:25;;;;;;;2.50;1.00;;;21.10;93.70;;;;;;4999916;28;20034;-83
2022/07/08 00:46:51;;;;;;;4.07;1.10;;;21.10;93.70;;;;;;4999054;28;20044;-82
2022/07/08 00:49:17;;;;;;;5.63;1.60;;;21.10;93.70;;;;;;5010238;28;20469;-82
2022/07/08 00:51:45;;;;;;;6.05;1.30;;;21.10;93.50;;;;;;5000749;28;20053;-82
2022/07/08 00:54:14;;;;;;;4.05;1.48;;;21.10;93.50;;;;;;4998941;28;20564;-83
2022/07/08 00:56:41;;;;;;;4.35;1.20;;;21.10;93.40;;;;;;4999145;28;20432;-82
2022/07/08 00:59:08;;;;;;;5.80;1.40;;;21.10;93.30;;;;;;4999223;28;20034;-82
2022/07/08 01:01:34;;;;;;;4.13;1.27;;;21.10;93.20;;;;;;5003891;28;20029;-82
2022/07/08 01:04:01;;;;;;;5.60;1.52;;;21.10;93.20;;;;;;5023709;28;20028;-83
2022/07/08 01:06:26;;;;;;;4.05;1.35;;;21.10;93.10;;;;;;5001701;28;20580;-82
2022/07/08 01:08:52;;;;;;;5.55;1.40;;;21.10;93.00;;;;;;5010407;28;20108;-83
2022/07/08 01:11:19;;;;;;;4.03;1.40;;;21.00;92.90;;;;;;5003234;28;20456;-82
2022/07/08 01:13:46;;;;;;;3.38;1.30;;;21.00;92.80;;;;;;5009169;28;20053;-83
2022/07/08 01:16:12;;;;;;;5.55;1.73;;;21.00;92.70;;;;;;5019828;28;20374;-82
2022/07/08 01:18:39;;;;;;;5.78;1.40;;;21.00;92.70;;;;;;4998669;28;20029;-83
2022/07/08 01:21:05;;;;;;;3.78;1.52;;;21.00;92.70;;;;;;5017790;28;20485;-82
2022/07/08 01:23:31;;;;;;;8.63;1.38;;;21.00;92.60;;;;;;5030971;28;20051;-82
2022/07/08 01:25:58;;;;;;;7.57;1.80;;;21.00;92.60;;;;;;5012959;28;20041;-82
2022/07/08 01:28:24;;;;;;;5.55;1.60;;;21.00;92.50;;;;;;5002063;28;20473;-82
2022/07/08 01:30:50;;;;;;;4.22;1.45;;;21.00;92.50;;;;;;5015769;28;20026;-82
2022/07/08 01:33:16;;;;;;;5.03;1.52;;;21.00;92.40;;;;;;5000929;28;20033;-82
2022/07/08 01:35:41;;;;;;;5.90;1.60;;;21.00;92.40;;;;;;5001843;28;20029;-82
2022/07/08 01:38:07;;;;;;;7.40;1.77;;;20.90;92.30;;;;;;5006607;28;20029;-82
2022/07/08 01:40:33;;;;;;;4.65;1.75;;;20.90;92.30;;;;;;5020975;28;20065;-83
2022/07/08 01:42:58;;;;;;;8.80;1.92;;;20.90;92.30;;;;;;5015368;28;20084;-83
2022/07/08 01:45:24;;;;;;;7.50;1.73;;;20.90;92.20;;;;;;5029708;28;20030;-82
2022/07/08 01:47:50;;;;;;;3.85;1.58;;;20.90;92.20;;;;;;5005466;28;20174;-82
2022/07/08 01:50:15;;;;;;;5.53;1.42;;;20.90;92.10;;;;;;4997822;28;20098;-83
2022/07/08 01:52:41;;;;;;;6.13;1.60;;;20.90;92.10;;;;;;5019449;28;20033;-83
2022/07/08 01:55:07;;;;;;;9.43;1.63;;;20.80;92.00;;;;;;4998228;28;20026;-83
2022/07/08 01:57:34;;;;;;;6.78;2.00;;;20.90;92.00;;;;;;4998080;28;20026;-82
2022/07/08 02:00:00;;;;;;;6.57;2.10;;;20.90;92.00;;;;;;4998372;28;20060;-82
2022/07/08 02:02:26;;;;;;;5.60;1.75;;;20.80;92.00;;;;;;5005061;28;20116;-83
2022/07/08 02:04:52;;;;;;;6.38;2.00;;;20.90;92.00;;;;;;5014894;28;20057;-83
2022/07/08 02:07:18;;;;;;;6.32;1.88;;;20.80;92.00;;;;;;5000532;28;20473;-83
2022/07/08 02:09:43;;;;;;;5.60;1.50;;;20.80;92.00;;;;;;4998818;28;20117;-83
2022/07/08 02:12:19;;;;;;;6.13;1.52;;;20.80;91.90;;;;;;4998873;28;20026;-83
2022/07/08 02:14:53;;;;;;;5.03;1.60;;;20.80;91.90;;;;;;5016231;28;20046;-82
2022/07/08 02:17:23;;;;;;;7.38;2.00;;;20.80;92.20;;;;;;5004729;28;20432;-83
2022/07/08 02:19:50;;;;;;;6.18;1.60;;;20.80;91.80;;;;;;4997471;28;20567;-83
2022/07/08 02:22:16;;;;;;;5.43;1.85;;;20.80;91.80;;;;;;4999082;28;20029;-82
2022/07/08 02:24:42;;;;;;;5.55;1.63;;;20.80;91.70;;;;;;5019158;28;20082;-82
2022/07/08 02:27:08;;;;;;;4.43;1.40;;;20.80;91.70;;;;;;5018992;28;20030;-83
2022/07/08 02:29:34;;;;;;;4.85;2.00;;;20.80;91.70;;;;;;5004081;28;20083;-82
2022/07/08 02:32:00;;;;;;;5.82;1.65;;;20.70;91.70;;;;;;4999660;28;20108;-82
2022/07/08 02:34:26;;;;;;;6.50;1.90;;;20.70;91.60;;;;;;5009129;28;20022;-82
2022/07/08 02:36:52;;;;;;;6.50;1.90;;;20.70;91.60;;;;;;4997593;28;20022;-83
2022/07/08 02:39:18;;;;;;;5.88;1.98;;;20.70;91.60;;;;;;4996840;28;20030;-82
2022/07/08 02:41:44;;;;;;;5.03;1.70;;;20.70;91.50;;;;;;5017728;28;20026;-83
2022/07/08 02:44:10;;;;;;;4.55;1.92;;;20.70;91.90;;;;;;5001971;28;20025;-83
2022/07/08 02:46:36;;;;;;;5.68;1.70;;;20.70;91.50;;;;;;4999891;28;20057;-82
2022/07/08 02:49:02;;;;;;;5.47;1.67;;;20.70;91.50;;;;;;5002642;28;20433;-83
2022/07/08 02:51:28;;;;;;;5.07;1.63;;;20.70;91.50;;;;;;5018536;28;20013;-83
2022/07/08 02:53:54;;;;;;;4.57;1.67;;;20.70;91.50;;;;;;5014230;28;20030;-82
2022/07/08 02:56:20;;;;;;;4.53;1.30;;;20.70;91.40;;;;;;4997465;28;20052;-82
2022/07/08 02:58:46;;;;;;;3.72;1.40;;;20.60;91.40;;;;;;5014227;28;20029;-83
2022/07/08 03:01:12;;;;;;;6.43;2.20;;;20.60;91.30;;;;;;4998370;28;20030;-82
2022/07/08 03:03:38;;;;;;;6.35;1.80;;;20.60;91.40;;;;;;5011313;28;20088;-83
2022/07/08 03:06:03;;;;;;;6.40;1.60;;;20.60;91.30;;;;;;5004860;28;20462;-83
2022/07/08 03:08:29;;;;;;;6.28;1.98;;;20.60;91.30;;;;;;5015384;28;20504;-82
2022/07/08 03:10:55;;;;;;;5.70;1.40;;;20.60;91.30;;;;;;5020158;28;20060;-82
2022/07/08 03:13:21;;;;;;;6.13;1.33;;;20.60;91.30;;;;;;5020187;28;20022;-82
2022/07/08 03:15:46;;;;;;;4.28;1.50;;;20.60;91.20;;;;;;4999038;28;20041;-83
2022/07/08 03:18:12;;;;;;;7.50;1.80;;;20.60;91.20;;;;;;4996740;28;20026;-82
2022/07/08 03:20:38;;;;;;;5.47;1.83;;;20.60;91.20;;;;;;4997807;28;20104;-82
2022/07/08 03:23:04;;;;;;;8.05;2.00;;;20.50;91.20;;;;;;5010293;28;20056;-83
2022/07/08 03:25:29;;;;;;;8.85;1.83;;;20.60;91.30;;;;;;5006437;28;20026;-82
2022/07/08 03:27:56;;;;;;;6.80;2.00;;;20.60;91.20;;;;;;5004862;28;20089;-83
2022/07/08 03:30:22;;;;;;;6.47;1.77;;;20.60;91.20;;;;;;4995956;28;20473;-83
2022/07/08 03:32:47;;;;;;;7.18;1.90;;;20.60;91.20;;;;;;5013658;28;20512;-82
2022/07/08 03:35:13;;;;;;;5.95;1.70;;;20.50;91.10;;;;;;4995834;28;20049;-82
2022/07/08 03:37:43;;;;;;;4.78;1.70;;;20.50;91.10;;;;;;4996430;28;20397;-83
2022/07/08 03:42:55;;;;;;;6.43;1.67;;;20.50;91.10;;;;;;5014110;28;20049;-83
2022/07/08 03:45:20;;;;;;;5.80;1.77;;;20.50;91.10;;;;;;5018589;28;20026;-82
2022/07/08 03:47:46;;;;;;;5.53;2.05;;;20.50;91.10;;;;;;4995874;28;20045;-83
2022/07/08 03:50:12;;;;;;;6.55;1.60;;;20.50;91.10;;;;;;5006783;28;20116;-82
2022/07/08 03:52:38;;;;;;;4.63;1.73;;;20.50;91.10;;;;;;5011724;28;20064;-82
2022/07/08 03:55:04;;;;;;;4.78;1.80;;;20.50;91.10;;;;;;5004408;28;20081;-83
2022/07/08 03:57:30;;;;;;;5.10;1.77;;;20.50;91.10;;;;;;5014373;28;20065;-83
2022/07/08 03:59:56;;;;;;;7.38;1.73;;;20.40;91.00;;;;;;5023519;28;20077;-83
2022/07/08 04:02:22;;;;;;;4.35;1.60;;;20.50;91.10;;;;;;5003877;28;20030;-83
2022/07/08 04:04:48;;;;;;;8.65;2.13;;;20.50;91.10;;;;;;5009224;28;20124;-83
2022/07/08 04:07:13;;;;;;;5.70;1.83;;;20.50;91.00;;;;;;5011886;28;20172;-83
2022/07/08 04:09:39;;;;;;;4.72;1.70;;;20.40;91.00;;;;;;5012336;28;20038;-83
2022/07/08 04:12:05;;;;;;;5.85;2.00;;;20.40;91.00;;;;;;4990595;28;20033;-83
2022/07/08 04:14:31;;;;;;;4.95;1.67;;;20.40;91.00;;;;;;4993716;28;20042;-84
2022/07/08 04:16:57;;;;;;;6.22;2.10;;;20.40;91.00;;;;;;5010157;28;20026;-83
2022/07/08 04:19:23;;;;;;;3.97;1.52;;;20.40;91.00;;;;;;4998821;28;20076;-83
2022/07/08 04:21:49;;;;;;;6.75;1.88;;;20.40;91.00;;;;;;4988297;28;20022;-83
2022/07/08 04:24:14;;;;;;;6.78;1.90;;;20.40;91.00;;;;;;4992855;28;20041;-83
2022/07/08 04:26:40;;;;;;;5.45;1.98;;;20.40;91.00;;;;;;4991788;28;20033;-83
2022/07/08 04:29:06;;;;;;;6.57;1.63;;;20.40;91.30;;;;;;4995253;28;20030;-83
2022/07/08 04:31:31;;;;;;;5.20;1.58;;;20.40;91.00;;;;;;4995137;28;20032;-83
2022/07/08 04:33:57;;;;;;;5.88;1.73;;;20.40;91.00;;;;;;4995670;28;20029;-83
2022/07/08 04:36:24;;;;;;;5.05;1.55;;;20.40;91.00;;;;;;5012375;28;20029;-83
2022/07/08 04:38:49;;;;;;;5.75;1.73;;;20.40;91.00;;;;;;5011877;28;20088;-83
2022/07/08 04:41:15;;;;;;;4.90;1.35;;;20.40;91.00;;;;;;4995118;28;20026;-83
2022/07/08 04:43:43;;;;;;;4.00;1.50;;;20.40;91.00;;;;;;5025082;28;20033;-83
2022/07/08 04:46:10;;;;;;;4.60;1.58;;;20.40;91.00;;;;;;5004549;28;20674;-83
2022/07/08 04:48:36;;;;;;;6.35;1.98;;;20.40;91.00;;;;;;4995072;28;20030;-83
2022/07/08 04:51:02;;;;;;;4.90;1.67;;;20.40;91.00;;;;;;4991640;28;20025;-83
2022/07/08 04:53:27;;;;;;;6.18;1.63;;;20.40;91.00;;;;;;4996129;28;20026;-83
2022/07/08 04:55:53;;;;;;;6.18;1.70;;;20.40;91.00;;;;;;4998546;28;20068;-83
2022/07/08 04:58:19;;;;;;;3.70;1.38;;;20.40;91.00;;;;;;4993592;28;20042;-83
2022/07/08 05:00:44;;;;;;;4.55;1.42;;;20.40;91.00;;;;;;4993270;28;20028;-83
2022/07/08 05:03:10;;;;;;;6.43;1.80;;;20.40;91.10;;;;;;5008265;28;20025;-83
2022/07/08 05:05:36;;;;;;;6.07;1.70;;;20.40;91.10;;;;;;4994054;28;20022;-83
2022/07/08 05:08:02;;;;;;;4.45;1.52;;;20.30;91.10;;;;;;4975763;28;20022;-83
2022/07/08 05:10:28;;;;;;;7.40;1.70;;;20.40;91.10;;;;;;5012004;28;20029;-83
2022/07/08 05:12:55;;;;;;;3.92;1.38;;;20.40;91.10;;;;;;4992906;28;20025;-83
2022/07/08 05:15:21;;;;;;;5.15;1.70;;;20.40;91.10;;;;;;4995936;28;20121;-83
2022/07/08 05:17:47;;;;;;;5.53;1.67;;;20.40;91.10;;;;;;5015712;28;20026;-82
2022/07/08 05:20:14;;;;;;;5.25;1.98;;;20.40;91.10;;;;;;5014295;28;20033;-82
2022/07/08 05:22:40;;;;;;;6.50;1.63;;;20.30;91.10;;;;;;4989159;28;20026;-82
2022/07/08 05:25:08;;;;;;;9.68;2.13;;;20.30;91.10;;;;;;4996301;28;20376;-82
2022/07/08 05:27:34;;;;;;;6.25;1.52;;;20.30;91.10;;;;;;4998023;28;20030;-82
2022/07/08 05:30:00;;;;;;;4.40;1.35;;;20.30;91.10;;;;;;4993157;28;20133;-82
2022/07/08 05:32:26;;;;;;;5.57;1.40;;;20.40;91.20;;;;;;5032839;28;20407;-82
2022/07/08 05:34:52;;;;;;;3.95;1.45;;;20.30;91.10;;;;;;4993128;28;20022;-82
2022/07/08 05:37:17;;;;;;;6.05;1.50;;;20.40;91.20;;;;;;5001673;28;20030;-83
2022/07/08 05:39:44;;;;;;;6.05;1.70;;;20.40;91.20;;;;;;5014797;28;20032;-83
2022/07/08 05:42:10;;;;;;;5.30;1.60;;;20.30;91.10;;;;;;4998800;28;20031;-82
2022/07/08 05:44:37;;;;;;;5.13;1.50;;;20.40;91.10;;;;;;5009723;28;20100;-82
2022/07/08 05:47:07;;;;;;;4.05;1.60;;;20.30;91.10;;;;;;5011964;28;20396;-82
2022/07/08 05:49:34;;;;;;;4.85;1.52;;;20.40;91.20;;;;;;4996301;28;20438;-82
2022/07/08 05:52:01;;;;;;;4.85;1.60;;;20.30;91.10;;;;;;4994175;28;20026;-82
2022/07/08 05:54:27;;;;;;;5.47;1.60;;;20.40;91.20;;;;;;5005699;28;20030;-83
2022/07/08 05:56:53;;;;;;;4.10;1.27;;;20.30;91.20;;;;;;5012676;28;20034;-82
2022/07/08 05:59:19;;;;;;;6.97;1.70;;;20.40;91.20;;;;;;5012085;28;20120;-82
2022/07/08 06:01:44;;;;;;;5.95;1.60;;;20.30;91.10;;;;;;4995178;28;20030;-82
2022/07/08 06:04:10;;;;;;;5.40;1.60;;;20.30;91.10;;;;;;5009100;28;20037;-82
2022/07/08 06:06:36;;;;;;;6.13;1.60;;;20.30;91.20;;;;;;5009988;28;20435;-82
2022/07/08 06:09:01;;;;;;;5.75;1.63;;;20.40;91.20;;;;;;5014467;28;20029;-82
2022/07/08 06:11:27;;;;;;;5.13;1.50;;;20.40;91.20;;;;;;5015704;28;20033;-82
2022/07/08 06:13:53;;;;;;;8.05;1.67;;;20.40;91.20;;;;;;4997216;28;20052;-82
2022/07/08 06:16:20;;;;;;;7.85;1.42;;;20.40;91.20;;;;;;4997192;28;20160;-83
2022/07/08 06:18:45;;;;;;;8.52;1.80;;;20.30;90.80;;;;;;5022219;28;20022;-82
2022/07/08 06:21:11;;;;;;;9.10;2.22;;;19.40;90.90;;;;;;4996818;28;20528;-81
2022/07/08 06:23:37;;;;;;;8.43;1.90;;;18.80;92.10;;;;;;4997209;28;20501;-82
2022/07/08 06:26:02;;;;;;;8.57;1.60;;;18.90;92.20;;;;;;5001366;28;20072;-82
2022/07/08 06:28:28;;;;;;;7.57;1.92;;;19.10;92.00;;;;;;5001660;28;20026;-82
2022/07/08 06:30:54;;;;;;;7.93;1.83;;;19.30;91.80;;;;;;5017620;28;20018;-82
2022/07/08 06:33:19;;;;;;;7.95;1.70;;;19.50;91.60;;;;;;4996956;28;20400;-82
2022/07/08 06:35:45;;;;;;;7.38;1.70;;;19.60;91.80;;;;;;4999308;28;20433;-82
2022/07/08 06:38:11;;;;;;;6.88;1.48;;;19.80;91.30;;;;;;5008306;28;20431;-82
2022/07/08 06:40:36;;;;;;;6.78;1.92;;;19.90;91.20;;;;;;4997130;28;20030;-82
2022/07/08 06:43:02;;;;;;;4.15;1.38;;;20.00;91.10;;;;;;5000157;28;20120;-82
2022/07/08 06:45:31;;;;;;;9.70;1.70;;;20.10;91.10;;;;;;4997110;28;20025;-82
2022/07/08 06:47:58;;;;;;;5.10;1.20;;;20.10;91.00;;;;;;5024292;28;20057;-82
2022/07/08 06:50:24;;;;;;;9.15;1.50;;;20.20;91.00;;;;;;5011203;28;20034;-82
2022/07/08 06:52:50;;;;;;;7.07;1.55;;;20.20;90.90;;;;;;5014745;28;20389;-82
2022/07/08 06:55:15;;;;;;;7.13;1.42;;;20.20;90.90;;;;;;4996856;28;20460;-82
2022/07/08 06:57:41;;;;;;;6.50;1.52;;;20.30;90.90;;;;;;5014392;28;20034;-82
2022/07/08 07:00:07;;;;;;;5.88;1.40;;;20.30;90.80;;;;;;4996898;28;20034;-82
2022/07/08 07:02:33;;;;;;;5.72;1.20;;;20.30;90.80;;;;;;4996683;28;20137;-82
2022/07/08 07:05:00;;;;;;;6.65;1.60;;;20.40;90.90;;;;;;5012708;28;20124;-82
2022/07/08 07:07:26;;;;;;;4.78;1.67;;;20.40;90.80;;;;;;5003185;28;20025;-82
2022/07/08 07:09:51;;;;;;;8.27;1.90;;;20.50;90.80;;;;;;5013827;28;20531;-82
2022/07/08 07:12:17;;;;;;;6.90;1.27;;;20.50;90.80;;;;;;5001824;28;20026;-81
2022/07/08 07:14:43;;;;;;;10.98;1.77;;;20.50;90.50;;;;;;5007694;28;20060;-82
2022/07/08 07:17:09;;;;;;;7.03;2.03;;;20.20;90.20;;;;;;5015674;28;20032;-82
2022/07/08 07:19:34;;;;;;;10.77;2.10;;;20.10;90.70;;;;;;5015903;28;20029;-82
2022/07/08 07:22:00;;;;;;;7.80;1.70;;;20.20;90.70;;;;;;5021541;28;20059;-82
2022/07/08 07:24:26;;;;;;;7.88;1.65;;;20.30;90.50;;;;;;4996527;28;20033;-83
2022/07/08 07:26:51;;;;;;;5.22;1.05;;;20.30;90.40;;;;;;5014129;28;20048;-82
2022/07/08 07:29:18;;;;;;;8.55;1.23;;;20.40;90.30;;;;;;4995995;28;20026;-83
2022/07/08 07:31:43;;;;;;;10.20;1.92;;;20.50;90.30;;;;;;4999857;28;20093;-82
2022/07/08 07:34:09;;;;;;;6.00;1.40;;;20.50;90.30;;;;;;5015757;28;20043;-82
2022/07/08 07:36:35;;;;;;;7.45;1.85;;;20.60;90.30;;;;;;5032055;28;20052;-82
2022/07/08 07:39:00;;;;;;;6.82;1.10;;;20.60;90.30;;;;;;5014960;28;20021;-82
2022/07/08 07:41:27;;;;;;;5.50;1.42;;;20.70;90.30;;;;;;5015709;28;20053;-82
2022/07/08 07:43:53;;;;;;;5.95;1.30;;;20.70;90.40;;;;;;5014852;28;20040;-82
2022/07/08 07:46:18;;;;;;;6.32;1.48;;;20.70;90.30;;;;;;5012594;28;20034;-82
2022/07/08 07:48:45;;;;;;;7.55;1.65;;;20.70;90.40;;;;;;4995846;28;20022;-82
2022/07/08 07:51:11;;;;;;;5.25;1.17;;;20.70;90.30;;;;;;5023810;28;20022;-83
2022/07/08 07:53:36;;;;;;;3.75;1.02;;;20.80;90.40;;;;;;5013025;28;20036;-82
2022/07/08 07:56:02;;;;;;;6.13;1.50;;;20.80;90.30;;;;;;5013990;28;20025;-82
2022/07/08 07:58:28;;;;;;;5.25;1.30;;;20.80;90.30;;;;;;5013678;28;20026;-82
2022/07/08 08:00:54;;;;;;;6.10;1.13;;;20.80;90.30;;;;;;4996049;28;20029;-82
2022/07/08 08:03:19;;;;;;;4.28;1.27;;;20.80;90.30;;;;;;4995801;28;20053;-82
2022/07/08 08:05:45;;;;;;;5.38;1.40;;;20.90;90.30;;;;;;5014182;28;20053;-82
2022/07/08 08:08:11;;;;;;;3.97;1.38;;;20.90;90.30;;;;;;5008098;28;20543;-82
2022/07/08 08:10:37;;;;;;;6.00;1.10;;;20.90;90.20;;;;;;4995637;28;20477;-82
2022/07/08 08:13:04;;;;;;;3.85;1.20;;;20.90;90.30;;;;;;5010960;28;20388;-82
2022/07/08 08:15:30;;;;;;;4.00;1.15;;;21.00;90.30;;;;;;5014444;28;20095;-82
2022/07/08 08:17:57;;;;;;;5.90;1.63;;;21.00;90.30;;;;;;5032991;28;20018;-82
2022/07/08 08:20:24;;;;;;;4.13;1.15;;;21.00;90.30;;;;;;4999410;28;20030;-82
2022/07/08 08:22:51;;;;;;;4.55;1.10;;;21.00;90.20;;;;;;4995712;28;20026;-82
2022/07/08 08:25:18;;;;;;;4.40;1.25;;;21.00;90.20;;;;;;5013433;28;20033;-82
2022/07/08 08:27:43;;;;;;;4.57;1.20;;;21.00;90.20;;;;;;5013194;28;20021;-82
2022/07/08 08:30:10;;;;;;;4.88;1.15;;;21.00;90.10;;;;;;4995848;28;20029;-83
2022/07/08 08:32:36;;;;;;;5.78;1.25;;;21.00;90.10;;;;;;5022569;28;20025;-82
2022/07/08 08:35:02;;;;;;;4.38;1.30;;;21.00;90.20;;;;;;5010447;28;20022;-83
2022/07/08 08:37:27;;;;;;;6.05;1.60;;;21.00;90.20;;;;;;4995406;28;20018;-82
2022/07/08 08:39:53;;;;;;;3.60;1.00;;;21.00;90.20;;;;;;5005792;28;20053;-82
2022/07/08 08:42:20;;;;;;;4.30;1.40;;;21.00;90.20;;;;;;5010164;28;20495;-82
2022/07/08 08:44:49;;;;;;;4.43;1.15;;;21.00;90.20;;;;;;4995423;28;20041;-82
2022/07/08 08:47:16;;;;;;;4.78;1.20;;;21.00;90.20;;;;;;4995567;28;20083;-82
2022/07/08 08:49:42;;;;;;;3.17;1.00;;;21.00;90.10;;;;;;5016354;28;20017;-82
2022/07/08 08:52:10;;;;;;;3.13;1.02;;;21.00;90.10;;;;;;4999118;28;20161;-82
2022/07/08 08:54:37;;;;;;;4.80;1.33;;;21.00;90.10;;;;;;4999180;28;20206;-82
2022/07/08 08:57:05;;;;;;;4.47;1.10;;;21.10;90.00;;;;;;4999144;28;20117;-82
2022/07/08 08:59:33;;;;;;;3.47;1.10;;;21.10;90.00;;;;;;4998959;28;20034;-82
2022/07/08 09:02:00;;;;;;;3.88;1.13;;;21.20;89.90;;;;;;5033293;28;20026;-82
2022/07/08 09:04:33;;;;;;;3.40;1.10;;;21.20;89.90;;;;;;5017514;28;20025;-82
2022/07/08 09:07:00;;;;;;;3.00;1.20;;;21.20;89.80;;;;;;5018214;28;20029;-82
2022/07/08 09:09:26;;;;;;;2.75;0.98;;;21.20;89.80;;;;;;4979157;28;20057;-82
2022/07/08 09:11:51;;;;;;;5.85;1.38;;;21.20;89.70;;;;;;4995180;28;20480;-82
2022/07/08 09:14:20;;;;;;;3.15;1.00;;;21.30;89.60;;;;;;5032721;28;20515;-83
2022/07/08 09:17:12;;;;;;;3.15;1.00;;;21.20;89.30;;;;;;4998693;28;20100;-83
2022/07/08 09:19:41;;;;;;;4.03;0.95;;;21.30;89.40;;;;;;5013193;28;20056;-82
2022/07/08 09:22:07;;;;;;;4.78;1.13;;;21.30;88.70;;;;;;5017185;28;20029;-82
2022/07/08 09:24:34;;;;;;;2.25;0.82;;;21.30;89.00;;;;;;5034997;28;20113;-82
2022/07/08 09:27:08;;;;;;;2.38;1.05;;;21.30;89.00;;;;;;5016077;28;20033;-82
2022/07/08 09:29:33;;;;;;;5.60;1.20;;;21.40;89.90;;;;;;4998684;28;20030;-82
2022/07/08 09:32:14;;;;;;;5.93;1.40;;;21.40;89.20;;;;;;5008214;28;20026;-82
2022/07/08 09:34:43;;;;;;;4.65;1.25;;;21.40;88.60;;;;;;5029716;28;20437;-82
2022/07/08 09:37:15;;;;;;;5.03;1.20;;;21.40;88.70;;;;;;5015869;28;20076;-82
2022/07/08 09:39:42;;;;;;;3.70;1.00;;;21.40;88.60;;;;;;5015977;28;20037;-82
2022/07/08 09:42:09;;;;;;;4.72;1.15;;;21.50;88.80;;;;;;4998291;28;20026;-82
2022/07/08 09:44:36;;;;;;;5.75;1.08;;;21.50;88.50;;;;;;5025164;28;20026;-82
2022/07/08 09:47:12;;;;;;;4.22;1.15;;;21.50;88.20;;;;;;4998068;28;20037;-82
2022/07/08 09:49:44;;;;;;;7.13;1.50;;;21.50;88.50;;;;;;5014711;28;20026;-83
2022/07/08 09:52:11;;;;;;;6.75;1.20;;;21.50;88.00;;;;;;5017067;28;20026;-82
2022/07/08 09:54:37;;;;;;;3.40;0.95;;;21.50;88.40;;;;;;5016690;28;20083;-82
2022/07/08 09:57:07;;;;;;;4.05;1.00;;;21.50;88.40;;;;;;5017250;28;20116;-82
2022/07/08 09:59:35;;;;;;;3.25;0.82;;;21.60;88.30;;;;;;5015866;28;20057;-82
2022/07/08 10:02:02;;;;;;;3.53;1.33;;;21.60;88.00;;;;;;5014701;28;20029;-82
2022/07/08 10:04:28;;;;;;;2.95;0.95;;;21.60;88.00;;;;;;4997811;28;20022;-83
2022/07/08 10:06:55;;;;;;;4.15;1.00;;;21.60;88.10;;;;;;5027796;28;20028;-82
2022/07/08 10:09:23;;;;;;;2.97;0.98;;;21.60;88.00;;;;;;5016450;28;20082;-82
2022/07/08 10:11:49;;;;;;;4.45;1.00;;;21.70;87.80;;;;;;5034938;28;20101;-82
2022/07/08 10:14:16;;;;;;;4.80;1.10;;;21.70;87.60;;;;;;5004475;28;20157;-82
2022/07/08 10:16:45;;;;;;;4.30;1.00;;;21.70;87.80;;;;;;4997745;28;20030;-83
2022/07/08 10:19:21;;;;;;;3.72;1.20;;;21.70;87.50;;;;;;4997567;28;20029;-82
2022/07/08 10:21:50;;;;;;;8.35;1.00;;;21.70;87.30;;;;;;5007244;28;20030;-82
2022/07/08 10:24:22;;;;;;;3.35;1.05;;;21.70;87.50;;;;;;5029094;28;20351;-82
2022/07/08 10:26:48;;;;;;;4.22;1.10;;;21.80;87.40;;;;;;4997433;28;20400;-82
2022/07/08 10:29:14;;;;;;;3.67;1.10;;;21.80;87.50;;;;;;5010458;28;20039;-82
2022/07/08 10:31:51;;;;;;;2.95;0.90;;;21.90;87.50;;;;;;5015597;28;20127;-83
2022/07/08 10:34:27;;;;;;;3.05;0.98;;;21.90;87.60;;;;;;5003000;28;20045;-82
2022/07/08 10:36:54;;;;;;;3.58;0.93;;;21.90;87.50;;;;;;4997492;28;20030;-82
2022/07/08 10:39:37;;;;;;;5.13;1.10;;;21.90;87.30;;;;;;4997136;28;20473;-83
2022/07/08 10:42:05;;;;;;;3.58;1.05;;;21.90;87.20;;;;;;5014569;28;20037;-82
2022/07/08 10:44:52;;;;;;;5.57;1.25;;;22.00;87.20;;;;;;5003624;28;20116;-82
2022/07/08 10:47:32;;;;;;;4.95;1.23;;;22.00;86.50;;;;;;5016543;28;20059;-82
2022/07/08 10:50:08;;;;;;;3.47;1.10;;;22.00;87.00;;;;;;4997324;28;20052;-83
2022/07/08 10:52:41;;;;;;;3.28;0.93;;;22.10;87.10;;;;;;5004998;28;20444;-82
2022/07/08 10:55:09;;;;;;;2.63;0.90;;;22.00;87.00;;;;;;5001487;28;20481;-83
2022/07/08 10:57:35;;;;;;;7.10;1.40;;;22.00;86.90;;;;;;5014202;28;20029;-82
2022/07/08 11:00:13;;;;;;;8.00;1.17;;;22.10;86.70;;;;;;4996842;28;20061;-83
2022/07/08 11:02:43;;;;;;;5.55;1.02;;;22.10;87.00;;;;;;4996679;28;20544;-83
2022/07/08 11:05:35;;;;;;;5.32;1.10;;;22.10;86.90;;;;;;5013261;28;20065;-82
2022/07/08 11:08:18;;;;;;;2.25;0.80;;;22.20;86.30;;;;;;5027396;28;20030;-83
2022/07/08 11:10:45;;;;;;;3.58;1.27;;;22.20;87.00;;;;;;4996519;28;20029;-83
2022/07/08 11:13:10;;;;;;;5.05;1.30;;;22.20;87.00;;;;;;4996614;28;20041;-83
2022/07/08 11:15:37;;;;;;;5.43;1.40;;;22.20;87.10;;;;;;5002007;28;20041;-83
2022/07/08 11:18:03;;;;;;;2.40;0.85;;;22.20;86.70;;;;;;5016849;28;20484;-82
2022/07/08 11:20:31;;;;;;;4.88;1.20;;;22.20;86.50;;;;;;5015317;28;20053;-83
2022/07/08 11:22:57;;;;;;;1.45;0.60;;;22.30;86.50;;;;;;5027363;28;20029;-82
2022/07/08 11:25:24;;;;;;;3.42;0.88;;;22.20;86.30;;;;;;5033742;28;20097;-83
2022/07/08 11:27:50;;;;;;;3.17;0.70;;;22.30;86.50;;;;;;5015220;28;20025;-82
2022/07/08 11:30:16;;;;;;;3.55;1.02;;;22.30;86.40;;;;;;5032961;28;20021;-83
2022/07/08 11:32:47;;;;;;;3.78;0.77;;;22.30;86.20;;;;;;5013951;28;20083;-83
2022/07/08 11:35:13;;;;;;;2.65;0.85;;;22.30;86.50;;;;;;5012510;28;20022;-82
2022/07/08 11:37:43;;;;;;;5.15;1.05;;;22.40;86.60;;;;;;5029084;28;20381;-82
2022/07/08 11:40:10;;;;;;;3.35;1.00;;;22.40;86.50;;;;;;5014960;28;20112;-83
2022/07/08 11:42:37;;;;;;;4.30;1.08;;;22.40;86.20;;;;;;5032075;28;20072;-83
2022/07/08 11:45:04;;;;;;;2.90;0.98;;;22.40;86.60;;;;;;5013573;28;20111;-83
2022/07/08 11:47:30;;;;;;;3.92;1.25;;;22.40;86.20;;;;;;4996818;28;20540;-83
2022/07/08 11:49:56;;;;;;;2.95;0.80;;;22.40;86.40;;;;;;5013879;28;20097;-82
2022/07/08 11:52:25;;;;;;;4.95;1.02;;;22.40;86.40;;;;;;5014579;28;20097;-82
2022/07/08 11:54:51;;;;;;;3.45;1.08;;;22.40;86.20;;;;;;5009495;28;20473;-82
2022/07/08 11:57:17;;;;;;;4.05;0.88;;;22.40;86.00;;;;;;4996035;28;20077;-83
2022/07/08 11:59:45;;;;;;;2.30;0.75;;;22.50;86.00;;;;;;5022123;28;20021;-82
2022/07/08 12:02:11;;;;;;;1.73;0.75;;;22.50;86.10;;;;;;5033149;28;20060;-83
2022/07/08 12:04:37;;;;;;;4.35;0.85;;;22.50;86.50;;;;;;4996896;28;20030;-82
2022/07/08 12:07:22;;;;;;;3.38;0.85;;;22.50;86.10;;;;;;5002473;28;20036;-83
2022/07/08 12:09:59;;;;;;;4.07;1.00;;;22.50;85.20;;;;;;5015468;28;20373;-82
2022/07/08 12:12:28;;;;;;;4.40;0.90;;;22.50;85.70;;;;;;5013233;28;20025;-83
2022/07/08 12:14:54;;;;;;;5.00;1.05;;;22.50;85.80;;;;;;4995492;28;20089;-82
2022/07/08 12:17:28;;;;;;;4.00;1.08;;;22.50;85.80;;;;;;4995834;28;20041;-83
2022/07/08 12:19:57;;;;;;;3.13;0.88;;;22.50;85.90;;;;;;4995677;28;20089;-83
2022/07/08 12:22:45;;;;;;;2.85;1.00;;;22.50;86.00;;;;;;5011709;28;20033;-83
2022/07/08 12:25:12;;;;;;;2.50;0.85;;;22.60;86.00;;;;;;5018365;28;20369;-82
2022/07/08 12:27:38;;;;;;;2.75;0.80;;;22.60;85.90;;;;;;5010791;28;20393;-83
2022/07/08 12:30:05;;;;;;;3.60;0.75;;;22.60;85.90;;;;;;4999389;28;20030;-83
2022/07/08 12:32:45;;;;;;;4.45;1.00;;;22.60;85.90;;;;;;5017342;28;20393;-83
2022/07/08 12:35:12;;;;;;;3.60;0.75;;;22.70;85.60;;;;;;5017128;28;20092;-83
2022/07/08 12:37:39;;;;;;;3.88;1.02;;;22.70;85.80;;;;;;5008898;28;20424;-83
2022/07/08 12:40:18;;;;;;;2.88;0.95;;;22.70;85.70;;;;;;5019053;28;20057;-83
2022/07/08 12:43:01;;;;;;;2.47;0.80;;;22.80;85.30;;;;;;5035823;28;20025;-83
2022/07/08 12:45:29;;;;;;;3.83;0.80;;;22.80;84.90;;;;;;5009523;28;20041;-83
2022/07/08 12:47:54;;;;;;;3.15;0.70;;;22.90;84.80;;;;;;4999189;28;20433;-83